sensor_id;sensor_type;location;lat;lon;timestamp;pressure;altitude;pressure_sealevel;temperature;humidity
61957;BME280;47916;45.544;10.166;2022-07-23T00:00:10;100027.19;;;30.73;36.46
61957;BME280;47916;45.544;10.166;2022-07-23T00:00:22;100010.50;;;30.69;36.48
61957;BME280;47916;45.544;10.166;2022-07-23T00:00:34;100018.69;;;30.69;36.53
61957;BME280;47916;45.544;10.166;2022-07-23T00:00:50;100021.44;;;30.69;36.59
61957;BME280;47916;45.544;10.166;2022-07-23T00:01:01;100020.59;;;30.69;36.57
61957;BME280;47916;45.544;10.166;2022-07-23T00:01:13;100018.97;;;30.68;36.64
61957;BME280;47916;45.544;10.166;2022-07-23T00:01:32;100018.41;;;30.66;36.56
61957;BME280;47916;45.544;10.166;2022-07-23T00:01:44;100015.41;;;30.67;36.62
61957;BME280;47916;45.544;10.166;2022-07-23T00:01:56;100025.25;;;30.68;36.63
61957;BME280;47916;45.544;10.166;2022-07-23T00:02:08;100018.97;;;30.68;36.84
61957;BME280;47916;45.544;10.166;2022-07-23T00:02:20;100023.09;;;30.70;36.70
61957;BME280;47916;45.544;10.166;2022-07-23T00:02:32;100012.41;;;30.69;36.57
61957;BME280;47916;45.544;10.166;2022-07-23T00:02:43;100027.72;;;30.70;36.55
61957;BME280;47916;45.544;10.166;2022-07-23T00:02:55;100013.50;;;30.68;36.68
61957;BME280;47916;45.544;10.166;2022-07-23T00:03:08;100017.03;;;30.68;36.51
61957;BME280;47916;45.544;10.166;2022-07-23T00:03:20;100024.44;;;30.68;36.59
61957;BME280;47916;45.544;10.166;2022-07-23T00:03:31;100021.72;;;30.68;36.74
61957;BME280;47916;45.544;10.166;2022-07-23T00:03:43;100020.59;;;30.69;36.85
61957;BME280;47916;45.544;10.166;2022-07-23T00:03:54;100018.97;;;30.68;36.91
61957;BME280;47916;45.544;10.166;2022-07-23T00:04:08;100020.59;;;30.69;36.53
61957;BME280;47916;45.544;10.166;2022-07-23T00:04:20;100020.59;;;30.69;36.41
61957;BME280;47916;45.544;10.166;2022-07-23T00:04:31;100023.09;;;30.70;36.51
61957;BME280;47916;45.544;10.166;2022-07-23T00:04:43;100022.50;;;30.68;36.45
61957;BME280;47916;45.544;10.166;2022-07-23T00:04:54;100020.59;;;30.69;36.30
61957;BME280;47916;45.544;10.166;2022-07-23T00:05:06;100024.16;;;30.69;36.47
61957;BME280;47916;45.544;10.166;2022-07-23T00:05:18;100020.34;;;30.70;36.52
61957;BME280;47916;45.544;10.166;2022-07-23T00:05:29;100012.41;;;30.69;36.46
61957;BME280;47916;45.544;10.166;2022-07-23T00:05:41;100022.25;;;30.70;36.42
61957;BME280;47916;45.544;10.166;2022-07-23T00:05:52;100025.00;;;30.70;36.39
61957;BME280;47916;45.544;10.166;2022-07-23T00:06:04;100018.69;;;30.69;36.58
61957;BME280;47916;45.544;10.166;2022-07-23T00:06:20;100019.53;;;30.70;36.57
61957;BME280;47916;45.544;10.166;2022-07-23T00:06:31;100022.25;;;30.70;36.29
61957;BME280;47916;45.544;10.166;2022-07-23T00:06:43;100022.00;;;30.71;36.45
61957;BME280;47916;45.544;10.166;2022-07-23T00:06:55;100021.16;;;30.71;36.21
61957;BME280;47916;45.544;10.166;2022-07-23T00:07:08;100014.88;;;30.70;36.50
61957;BME280;47916;45.544;10.166;2022-07-23T00:07:20;100021.16;;;30.71;36.40
61957;BME280;47916;45.544;10.166;2022-07-23T00:07:32;100014.06;;;30.70;36.45
61957;BME280;47916;45.544;10.166;2022-07-23T00:07:43;100019.53;;;30.70;36.10
61957;BME280;47916;45.544;10.166;2022-07-23T00:07:54;100021.44;;;30.69;36.25
61957;BME280;47916;45.544;10.166;2022-07-23T00:08:06;100022.25;;;30.70;36.22
61957;BME280;47916;45.544;10.166;2022-07-23T00:08:21;100015.41;;;30.67;36.36
61957;BME280;47916;45.544;10.166;2022-07-23T00:08:33;100023.34;;;30.69;36.35
61957;BME280;47916;45.544;10.166;2022-07-23T00:08:44;100013.50;;;30.68;36.47
61957;BME280;47916;45.544;10.166;2022-07-23T00:08:57;100019.53;;;30.70;36.41
61957;BME280;47916;45.544;10.166;2022-07-23T00:09:09;100019.78;;;30.68;36.30
61957;BME280;47916;45.544;10.166;2022-07-23T00:09:20;100017.31;;;30.67;36.31
61957;BME280;47916;45.544;10.166;2022-07-23T00:09:32;100020.59;;;30.69;36.29
61957;BME280;47916;45.544;10.166;2022-07-23T00:09:44;100016.78;;;30.70;36.29
61957;BME280;47916;45.544;10.166;2022-07-23T00:09:55;100019.53;;;30.70;36.20
61957;BME280;47916;45.544;10.166;2022-07-23T00:10:07;100015.13;;;30.69;36.35
61957;BME280;47916;45.544;10.166;2022-07-23T00:10:19;100011.56;;;30.68;36.22
61957;BME280;47916;45.544;10.166;2022-07-23T00:10:30;100016.25;;;30.68;36.27
61957;BME280;47916;45.544;10.166;2022-07-23T00:10:42;100015.13;;;30.69;36.36
61957;BME280;47916;45.544;10.166;2022-07-23T00:10:53;100013.50;;;30.68;36.17
61957;BME280;47916;45.544;10.166;2022-07-23T00:11:06;100013.22;;;30.69;36.29
61957;BME280;47916;45.544;10.166;2022-07-23T00:11:18;100012.41;;;30.69;36.16
61957;BME280;47916;45.544;10.166;2022-07-23T00:11:29;100020.34;;;30.70;36.17
61957;BME280;47916;45.544;10.166;2022-07-23T00:11:41;100013.22;;;30.69;36.08
61957;BME280;47916;45.544;10.166;2022-07-23T00:11:53;100013.22;;;30.69;36.19
61957;BME280;47916;45.544;10.166;2022-07-23T00:12:07;100018.44;;;30.71;36.15
61957;BME280;47916;45.544;10.166;2022-07-23T00:12:20;100016.78;;;30.70;36.12
61957;BME280;47916;45.544;10.166;2022-07-23T00:12:32;100015.97;;;30.69;36.19
61957;BME280;47916;45.544;10.166;2022-07-23T00:12:43;100014.06;;;30.70;36.19
61957;BME280;47916;45.544;10.166;2022-07-23T00:13:02;100013.22;;;30.69;36.46
61957;BME280;47916;45.544;10.166;2022-07-23T00:13:13;100015.97;;;30.69;36.28
61957;BME280;47916;45.544;10.166;2022-07-23T00:13:25;100017.03;;;30.68;36.28
61957;BME280;47916;45.544;10.166;2022-07-23T00:13:37;100024.16;;;30.69;36.14
61957;BME280;47916;45.544;10.166;2022-07-23T00:13:49;100017.88;;;30.69;36.14
61957;BME280;47916;45.544;10.166;2022-07-23T00:14:00;100013.50;;;30.68;36.15
61957;BME280;47916;45.544;10.166;2022-07-23T00:14:12;100018.44;;;30.71;36.17
61957;BME280;47916;45.544;10.166;2022-07-23T00:14:23;100017.59;;;30.70;36.23
61957;BME280;47916;45.544;10.166;2022-07-23T00:14:35;100017.59;;;30.70;36.21
61957;BME280;47916;45.544;10.166;2022-07-23T00:14:47;100017.88;;;30.69;36.21
61957;BME280;47916;45.544;10.166;2022-07-23T00:14:58;100014.88;;;30.70;36.41
61957;BME280;47916;45.544;10.166;2022-07-23T00:15:10;100020.59;;;30.69;36.23
61957;BME280;47916;45.544;10.166;2022-07-23T00:15:22;100020.59;;;30.69;36.23
61957;BME280;47916;45.544;10.166;2022-07-23T00:15:33;100017.88;;;30.69;36.29
61957;BME280;47916;45.544;10.166;2022-07-23T00:15:45;100024.16;;;30.69;36.26
61957;BME280;47916;45.544;10.166;2022-07-23T00:15:56;100024.44;;;30.68;36.29
61957;BME280;47916;45.544;10.166;2022-07-23T00:16:08;100008.28;;;30.66;36.24
61957;BME280;47916;45.544;10.166;2022-07-23T00:16:20;100021.72;;;30.68;36.33
61957;BME280;47916;45.544;10.166;2022-07-23T00:16:31;100025.25;;;30.68;36.34
61957;BME280;47916;45.544;10.166;2022-07-23T00:16:43;100020.06;;;30.67;36.63
61957;BME280;47916;45.544;10.166;2022-07-23T00:16:54;100025.78;;;30.65;36.56
61957;BME280;47916;45.544;10.166;2022-07-23T00:17:06;100021.13;;;30.66;36.45
61957;BME280;47916;45.544;10.166;2022-07-23T00:17:17;100025.78;;;30.65;36.53
61957;BME280;47916;45.544;10.166;2022-07-23T00:17:29;100018.69;;;30.64;36.48
61957;BME280;47916;45.544;10.166;2022-07-23T00:17:40;100020.59;;;30.64;36.49
61957;BME280;47916;45.544;10.166;2022-07-23T00:17:52;100025.22;;;30.63;36.73
61957;BME280;47916;45.544;10.166;2022-07-23T00:18:03;100024.66;;;30.61;36.67
61957;BME280;47916;45.544;10.166;2022-07-23T00:18:15;100018.41;;;30.60;36.65
61957;BME280;47916;45.544;10.166;2022-07-23T00:18:26;100022.75;;;30.61;36.61
61957;BME280;47916;45.544;10.166;2022-07-23T00:18:38;100017.56;;;30.60;36.63
61957;BME280;47916;45.544;10.166;2022-07-23T00:18:49;100026.59;;;30.60;36.61
61957;BME280;47916;45.544;10.166;2022-07-23T00:19:04;100018.41;;;30.60;36.76
61957;BME280;47916;45.544;10.166;2022-07-23T00:19:16;100025.78;;;30.60;36.82
61957;BME280;47916;45.544;10.166;2022-07-23T00:19:27;100017.56;;;30.60;36.75
61957;BME280;47916;45.544;10.166;2022-07-23T00:19:39;100023.88;;;30.60;36.69
61957;BME280;47916;45.544;10.166;2022-07-23T00:19:50;100022.22;;;30.59;36.86
61957;BME280;47916;45.544;10.166;2022-07-23T00:20:02;100020.56;;;30.58;36.84
61957;BME280;47916;45.544;10.166;2022-07-23T00:20:14;100021.63;;;30.57;36.95
61957;BME280;47916;45.544;10.166;2022-07-23T00:20:26;100024.38;;;30.57;36.99
61957;BME280;47916;45.544;10.166;2022-07-23T00:20:38;100014.81;;;30.55;36.88
61957;BME280;47916;45.544;10.166;2022-07-23T00:20:49;100019.44;;;30.54;37.01
61957;BME280;47916;45.544;10.166;2022-07-23T00:21:01;100025.72;;;30.55;37.04
61957;BME280;47916;45.544;10.166;2022-07-23T00:21:12;100027.38;;;30.56;37.05
61957;BME280;47916;45.544;10.166;2022-07-23T00:21:24;100029.53;;;30.54;37.09
61957;BME280;47916;45.544;10.166;2022-07-23T00:21:35;100021.09;;;30.55;37.08
61957;BME280;47916;45.544;10.166;2022-07-23T00:21:47;100019.44;;;30.54;37.02
61957;BME280;47916;45.544;10.166;2022-07-23T00:22:01;100028.47;;;30.55;37.01
61957;BME280;47916;45.544;10.166;2022-07-23T00:22:13;100028.47;;;30.55;37.03
61957;BME280;47916;45.544;10.166;2022-07-23T00:22:24;100030.66;;;30.53;37.17
61957;BME280;47916;45.544;10.166;2022-07-23T00:22:36;100015.34;;;30.52;36.96
61957;BME280;47916;45.544;10.166;2022-07-23T00:22:53;100031.47;;;30.53;37.04
61957;BME280;47916;45.544;10.166;2022-07-23T00:23:08;100035.84;;;30.54;37.02
61957;BME280;47916;45.544;10.166;2022-07-23T00:23:21;100029.53;;;30.54;37.02
61957;BME280;47916;45.544;10.166;2022-07-23T00:23:33;100031.47;;;30.53;37.20
61957;BME280;47916;45.544;10.166;2022-07-23T00:23:44;100032.56;;;30.52;37.29
61957;BME280;47916;45.544;10.166;2022-07-23T00:23:56;100035.28;;;30.52;37.31
61957;BME280;47916;45.544;10.166;2022-07-23T00:24:07;100026.28;;;30.52;37.46
61957;BME280;47916;45.544;10.166;2022-07-23T00:24:21;100029.25;;;30.50;37.26
61957;BME280;47916;45.544;10.166;2022-07-23T00:24:33;100036.38;;;30.51;37.38
61957;BME280;47916;45.544;10.166;2022-07-23T00:24:44;100030.66;;;30.53;37.29
61957;BME280;47916;45.544;10.166;2022-07-23T00:25:15;100040.75;;;30.52;37.37
61957;BME280;47916;45.544;10.166;2022-07-23T00:25:43;100037.47;;;30.50;37.35
61957;BME280;47916;45.544;10.166;2022-07-23T00:25:56;100037.47;;;30.50;37.34
61957;BME280;47916;45.544;10.166;2022-07-23T00:26:08;100032.00;;;30.50;37.38
61957;BME280;47916;45.544;10.166;2022-07-23T00:26:19;100039.38;;;30.50;37.30
61957;BME280;47916;45.544;10.166;2022-07-23T00:26:31;100033.94;;;30.50;37.29
61957;BME280;47916;45.544;10.166;2022-07-23T00:26:58;100042.13;;;30.50;37.22
61957;BME280;47916;45.544;10.166;2022-07-23T00:27:09;100036.66;;;30.50;37.13
61957;BME280;47916;45.544;10.166;2022-07-23T00:27:21;100042.13;;;30.50;37.23
61957;BME280;47916;45.544;10.166;2022-07-23T00:27:32;100041.28;;;30.49;37.28
61957;BME280;47916;45.544;10.166;2022-07-23T00:27:44;100038.56;;;30.49;37.19
61957;BME280;47916;45.544;10.166;2022-07-23T00:27:59;100045.13;;;30.48;37.13
61957;BME280;47916;45.544;10.166;2022-07-23T00:28:11;100035.84;;;30.49;37.22
61957;BME280;47916;45.544;10.166;2022-07-23T00:28:22;100046.75;;;30.49;37.32
61957;BME280;47916;45.544;10.166;2022-07-23T00:28:34;100042.13;;;30.50;37.32
61957;BME280;47916;45.544;10.166;2022-07-23T00:28:45;100046.75;;;30.49;37.23
61957;BME280;47916;45.544;10.166;2022-07-23T00:28:57;100040.72;;;30.47;37.33
61957;BME280;47916;45.544;10.166;2022-07-23T00:29:09;100044.03;;;30.49;37.51
61957;BME280;47916;45.544;10.166;2022-07-23T00:29:20;100048.91;;;30.47;37.42
61957;BME280;47916;45.544;10.166;2022-07-23T00:29:32;100047.00;;;30.48;37.20
61957;BME280;47916;45.544;10.166;2022-07-23T00:29:43;100046.19;;;30.47;37.30
61957;BME280;47916;45.544;10.166;2022-07-23T00:29:54;100048.91;;;30.47;37.30
61957;BME280;47916;45.544;10.166;2022-07-23T00:30:06;100046.19;;;30.47;37.30
61957;BME280;47916;45.544;10.166;2022-07-23T00:30:19;100048.09;;;30.47;37.53
61957;BME280;47916;45.544;10.166;2022-07-23T00:30:33;100047.31;;;30.46;37.39
61957;BME280;47916;45.544;10.166;2022-07-23T00:30:45;100041.00;;;30.46;37.41
61957;BME280;47916;45.544;10.166;2022-07-23T00:30:56;100050.28;;;30.45;37.35
61957;BME280;47916;45.544;10.166;2022-07-23T00:31:08;100049.19;;;30.46;37.71
61957;BME280;47916;45.544;10.166;2022-07-23T00:31:19;100054.91;;;30.44;37.82
61957;BME280;47916;45.544;10.166;2022-07-23T00:31:31;100045.06;;;30.43;37.70
61957;BME280;47916;45.544;10.166;2022-07-23T00:31:42;100051.38;;;30.44;37.79
61957;BME280;47916;45.544;10.166;2022-07-23T00:31:58;100057.09;;;30.42;37.85
61957;BME280;47916;45.544;10.166;2022-07-23T00:32:09;100047.25;;;30.41;37.78
61957;BME280;47916;45.544;10.166;2022-07-23T00:32:21;100050.00;;;30.41;37.77
61957;BME280;47916;45.544;10.166;2022-07-23T00:32:54;100051.84;;;30.36;37.99
61957;BME280;47916;45.544;10.166;2022-07-23T00:33:07;100055.38;;;30.36;38.02
61957;BME280;47916;45.544;10.166;2022-07-23T00:33:34;100054.84;;;30.34;37.95
61957;BME280;47916;45.544;10.166;2022-07-23T00:33:46;100050.19;;;30.35;37.94
61957;BME280;47916;45.544;10.166;2022-07-23T00:33:57;100050.44;;;30.33;38.20
61957;BME280;47916;45.544;10.166;2022-07-23T00:34:08;100053.75;;;30.35;38.11
61957;BME280;47916;45.544;10.166;2022-07-23T00:34:21;100046.63;;;30.34;38.24
61957;BME280;47916;45.544;10.166;2022-07-23T00:34:32;100060.84;;;30.36;38.17
61957;BME280;47916;45.544;10.166;2022-07-23T00:34:44;100046.38;;;30.36;38.05
61957;BME280;47916;45.544;10.166;2022-07-23T00:34:55;100052.94;;;30.35;38.14
61957;BME280;47916;45.544;10.166;2022-07-23T00:35:07;100054.59;;;30.36;38.12
61957;BME280;47916;45.544;10.166;2022-07-23T00:35:20;100061.97;;;30.35;38.13
61957;BME280;47916;45.544;10.166;2022-07-23T00:35:39;100054.00;;;30.34;37.89
61957;BME280;47916;45.544;10.166;2022-07-23T00:35:52;100055.09;;;30.33;38.02
61957;BME280;47916;45.544;10.166;2022-07-23T00:36:04;100063.28;;;30.33;37.93
61957;BME280;47916;45.544;10.166;2022-07-23T00:36:16;100056.19;;;30.32;38.26
61957;BME280;47916;45.544;10.166;2022-07-23T00:36:30;100049.91;;;30.31;38.29
61957;BME280;47916;45.544;10.166;2022-07-23T00:36:41;100058.09;;;30.31;38.39
61957;BME280;47916;45.544;10.166;2022-07-23T00:36:53;100052.06;;;30.29;38.27
61957;BME280;47916;45.544;10.166;2022-07-23T00:37:04;100055.63;;;30.30;38.38
61957;BME280;47916;45.544;10.166;2022-07-23T00:37:15;100052.88;;;30.30;38.26
61957;BME280;47916;45.544;10.166;2022-07-23T00:37:27;100057.53;;;30.29;38.32
61957;BME280;47916;45.544;10.166;2022-07-23T00:37:39;100050.16;;;30.30;38.35
61957;BME280;47916;45.544;10.166;2022-07-23T00:37:53;100054.78;;;30.29;38.36
61957;BME280;47916;45.544;10.166;2022-07-23T00:38:05;100055.63;;;30.30;38.26
61957;BME280;47916;45.544;10.166;2022-07-23T00:38:16;100054.78;;;30.29;38.45
61957;BME280;47916;45.544;10.166;2022-07-23T00:38:28;100056.44;;;30.30;38.11
61957;BME280;47916;45.544;10.166;2022-07-23T00:38:40;100058.34;;;30.30;38.28
61957;BME280;47916;45.544;10.166;2022-07-23T00:38:51;100050.44;;;30.28;38.01
61957;BME280;47916;45.544;10.166;2022-07-23T00:39:04;100060.53;;;30.28;38.16
61957;BME280;47916;45.544;10.166;2022-07-23T00:39:15;100058.63;;;30.28;38.23
61957;BME280;47916;45.544;10.166;2022-07-23T00:39:27;100056.97;;;30.27;38.49
61957;BME280;47916;45.544;10.166;2022-07-23T00:39:39;100058.88;;;30.27;38.35
61957;BME280;47916;45.544;10.166;2022-07-23T00:40:05;100056.16;;;30.27;38.25
61957;BME280;47916;45.544;10.166;2022-07-23T00:40:17;100054.50;;;30.26;38.53
61957;BME280;47916;45.544;10.166;2022-07-23T00:40:29;100051.75;;;30.26;38.25
61957;BME280;47916;45.544;10.166;2022-07-23T00:40:41;100053.13;;;30.23;38.06
61957;BME280;47916;45.544;10.166;2022-07-23T00:40:52;100054.19;;;30.22;37.79
61957;BME280;47916;45.544;10.166;2022-07-23T00:41:04;100053.41;;;30.22;38.25
61957;BME280;47916;45.544;10.166;2022-07-23T00:41:15;100051.75;;;30.21;38.20
61957;BME280;47916;45.544;10.166;2022-07-23T00:41:27;100051.16;;;30.19;38.08
61957;BME280;47916;45.544;10.166;2022-07-23T00:41:40;100044.06;;;30.18;38.12
61957;BME280;47916;45.544;10.166;2022-07-23T00:41:53;100055.84;;;30.18;38.06
61957;BME280;47916;45.544;10.166;2022-07-23T00:42:05;100051.44;;;30.17;38.16
61957;BME280;47916;45.544;10.166;2022-07-23T00:42:16;100049.78;;;30.16;38.11
61957;BME280;47916;45.544;10.166;2022-07-23T00:42:27;100057.16;;;30.16;38.05
61957;BME280;47916;45.544;10.166;2022-07-23T00:42:40;100051.44;;;30.17;38.19
61957;BME280;47916;45.544;10.166;2022-07-23T00:42:52;100051.44;;;30.17;38.15
61957;BME280;47916;45.544;10.166;2022-07-23T00:43:04;100045.97;;;30.17;38.02
61957;BME280;47916;45.544;10.166;2022-07-23T00:43:15;100046.81;;;30.18;37.97
61957;BME280;47916;45.544;10.166;2022-07-23T00:43:27;100039.69;;;30.17;37.79
61957;BME280;47916;45.544;10.166;2022-07-23T00:43:38;100043.25;;;30.17;37.89
61957;BME280;47916;45.544;10.166;2022-07-23T00:43:49;100042.16;;;30.18;37.76
61957;BME280;47916;45.544;10.166;2022-07-23T00:44:19;100049.00;;;30.21;37.77
61957;BME280;47916;45.544;10.166;2022-07-23T00:44:31;100036.72;;;30.18;37.71
61957;BME280;47916;45.544;10.166;2022-07-23T00:44:42;100039.69;;;30.17;37.65
61957;BME280;47916;45.544;10.166;2022-07-23T00:44:57;100041.34;;;30.18;37.58
61957;BME280;47916;45.544;10.166;2022-07-23T00:45:09;100038.88;;;30.16;37.77
61957;BME280;47916;45.544;10.166;2022-07-23T00:45:21;100039.44;;;30.18;37.59
61957;BME280;47916;45.544;10.166;2022-07-23T00:45:33;100042.97;;;30.19;37.51
61957;BME280;47916;45.544;10.166;2022-07-23T00:45:44;100038.63;;;30.18;37.49
61957;BME280;47916;45.544;10.166;2022-07-23T00:45:56;100041.34;;;30.18;37.55
61957;BME280;47916;45.544;10.166;2022-07-23T00:46:07;100036.97;;;30.17;37.50
61957;BME280;47916;45.544;10.166;2022-07-23T00:46:22;100036.97;;;30.17;37.56
61957;BME280;47916;45.544;10.166;2022-07-23T00:46:34;100040.50;;;30.17;37.59
61957;BME280;47916;45.544;10.166;2022-07-23T00:46:48;100034.22;;;30.17;37.62
61957;BME280;47916;45.544;10.166;2022-07-23T00:47:00;100041.59;;;30.16;37.54
61957;BME280;47916;45.544;10.166;2022-07-23T00:47:11;100035.59;;;30.14;37.46
61957;BME280;47916;45.544;10.166;2022-07-23T00:47:23;100034.19;;;30.11;37.54
61957;BME280;47916;45.544;10.166;2022-07-23T00:47:35;100031.44;;;30.11;37.58
61957;BME280;47916;45.544;10.166;2022-07-23T00:47:47;100036.91;;;30.11;37.48
61957;BME280;47916;45.544;10.166;2022-07-23T00:47:59;100030.06;;;30.09;37.52
61957;BME280;47916;45.544;10.166;2022-07-23T00:48:11;100028.16;;;30.09;37.48
61957;BME280;47916;45.544;10.166;2022-07-23T00:48:23;100033.63;;;30.09;37.52
61957;BME280;47916;45.544;10.166;2022-07-23T00:48:35;100035.53;;;30.09;37.63
61957;BME280;47916;45.544;10.166;2022-07-23T00:48:46;100027.88;;;30.06;37.54
61957;BME280;47916;45.544;10.166;2022-07-23T00:48:58;100034.72;;;30.08;37.59
61957;BME280;47916;45.544;10.166;2022-07-23T00:49:10;100035.53;;;30.09;37.62
61957;BME280;47916;45.544;10.166;2022-07-23T00:49:23;100036.63;;;30.08;37.58
61957;BME280;47916;45.544;10.166;2022-07-23T00:49:34;100029.53;;;30.07;37.68
61957;BME280;47916;45.544;10.166;2022-07-23T00:49:46;100031.16;;;30.08;37.60
61957;BME280;47916;45.544;10.166;2022-07-23T00:49:58;100032.25;;;30.07;37.73
61957;BME280;47916;45.544;10.166;2022-07-23T00:50:10;100029.78;;;30.05;37.58
61957;BME280;47916;45.544;10.166;2022-07-23T00:50:22;100028.13;;;30.04;37.53
61957;BME280;47916;45.544;10.166;2022-07-23T00:50:33;100028.66;;;30.01;37.67
61957;BME280;47916;45.544;10.166;2022-07-23T00:50:45;100028.94;;;30.00;37.96
61957;BME280;47916;45.544;10.166;2022-07-23T00:50:56;100029.19;;;29.98;37.81
61957;BME280;47916;45.544;10.166;2022-07-23T00:51:08;100030.84;;;29.99;37.88
61957;BME280;47916;45.544;10.166;2022-07-23T00:51:19;100031.09;;;29.98;37.89
61957;BME280;47916;45.544;10.166;2022-07-23T00:51:31;100033.81;;;29.98;37.85
61957;BME280;47916;45.544;10.166;2022-07-23T00:51:42;100033.81;;;29.98;38.05
61957;BME280;47916;45.544;10.166;2022-07-23T00:51:54;100027.53;;;29.97;38.03
61957;BME280;47916;45.544;10.166;2022-07-23T00:52:07;100025.91;;;29.96;37.97
61957;BME280;47916;45.544;10.166;2022-07-23T00:52:18;100026.72;;;29.97;37.99
61957;BME280;47916;45.544;10.166;2022-07-23T00:52:31;100019.31;;;29.97;37.94
61957;BME280;47916;45.544;10.166;2022-07-23T00:52:43;100027.53;;;29.97;37.93
61957;BME280;47916;45.544;10.166;2022-07-23T00:52:55;100022.88;;;29.98;37.92
61957;BME280;47916;45.544;10.166;2022-07-23T00:53:06;100026.44;;;29.98;37.92
61957;BME280;47916;45.544;10.166;2022-07-23T00:53:19;100028.63;;;29.96;38.01
61957;BME280;47916;45.544;10.166;2022-07-23T00:53:31;100032.72;;;29.99;38.00
61957;BME280;47916;45.544;10.166;2022-07-23T00:53:45;100026.16;;;29.95;38.13
61957;BME280;47916;45.544;10.166;2022-07-23T00:53:57;100025.84;;;29.91;38.28
61957;BME280;47916;45.544;10.166;2022-07-23T00:54:09;100026.13;;;29.90;38.26
61957;BME280;47916;45.544;10.166;2022-07-23T00:54:24;100022.56;;;29.89;38.36
61957;BME280;47916;45.544;10.166;2022-07-23T00:54:36;100021.47;;;29.90;38.28
61957;BME280;47916;45.544;10.166;2022-07-23T00:54:47;100027.75;;;29.91;38.41
61957;BME280;47916;45.544;10.166;2022-07-23T00:54:59;100019.56;;;29.91;38.71
61957;BME280;47916;45.544;10.166;2022-07-23T00:55:12;100031.59;;;29.90;38.57
61957;BME280;47916;45.544;10.166;2022-07-23T00:55:23;100024.19;;;29.90;38.47
61957;BME280;47916;45.544;10.166;2022-07-23T00:55:35;100025.84;;;29.91;38.34
61957;BME280;47916;45.544;10.166;2022-07-23T00:55:47;100034.88;;;29.92;38.41
61957;BME280;47916;45.544;10.166;2022-07-23T00:55:58;100032.97;;;29.92;38.50
61957;BME280;47916;45.544;10.166;2022-07-23T00:56:10;100025.59;;;29.93;38.45
61957;BME280;47916;45.544;10.166;2022-07-23T00:56:22;100027.22;;;29.94;38.43
61957;BME280;47916;45.544;10.166;2022-07-23T00:56:34;100027.50;;;29.92;38.54
61957;BME280;47916;45.544;10.166;2022-07-23T00:56:46;100034.63;;;29.93;38.84
61957;BME280;47916;45.544;10.166;2022-07-23T00:56:57;100031.06;;;29.93;38.47
61957;BME280;47916;45.544;10.166;2022-07-23T00:57:09;100028.31;;;29.93;38.70
61957;BME280;47916;45.544;10.166;2022-07-23T00:57:20;100024.50;;;29.94;38.61
61957;BME280;47916;45.544;10.166;2022-07-23T00:57:40;100038.16;;;29.94;38.46
61957;BME280;47916;45.544;10.166;2022-07-23T00:57:53;100024.25;;;29.95;38.42
61957;BME280;47916;45.544;10.166;2022-07-23T00:58:05;100024.25;;;29.95;38.46
61957;BME280;47916;45.544;10.166;2022-07-23T00:58:17;100024.00;;;29.97;38.37
61957;BME280;47916;45.544;10.166;2022-07-23T00:58:29;100028.34;;;29.98;38.51
61957;BME280;47916;45.544;10.166;2022-07-23T00:58:42;100021.25;;;29.97;38.36
61957;BME280;47916;45.544;10.166;2022-07-23T00:58:54;100023.16;;;29.96;38.25
61957;BME280;47916;45.544;10.166;2022-07-23T00:59:06;100022.34;;;29.96;38.11
61957;BME280;47916;45.544;10.166;2022-07-23T00:59:18;100015.81;;;29.97;38.16
61957;BME280;47916;45.544;10.166;2022-07-23T00:59:29;100021.25;;;29.97;38.17
61957;BME280;47916;45.544;10.166;2022-07-23T00:59:41;100024.00;;;29.97;38.17
61957;BME280;47916;45.544;10.166;2022-07-23T00:59:56;100024.00;;;29.97;38.25
61957;BME280;47916;45.544;10.166;2022-07-23T01:00:11;100021.25;;;29.97;38.09
61957;BME280;47916;45.544;10.166;2022-07-23T01:00:23;100018.53;;;29.97;38.18
61957;BME280;47916;45.544;10.166;2022-07-23T01:00:35;100011.13;;;29.97;38.24
61957;BME280;47916;45.544;10.166;2022-07-23T01:00:46;100013.06;;;29.97;38.17
61957;BME280;47916;45.544;10.166;2022-07-23T01:00:58;100014.97;;;29.96;38.17
61957;BME280;47916;45.544;10.166;2022-07-23T01:01:11;100017.72;;;29.96;38.14
61957;BME280;47916;45.544;10.166;2022-07-23T01:01:23;100011.41;;;29.96;38.20
61957;BME280;47916;45.544;10.166;2022-07-23T01:01:34;100013.31;;;29.95;38.03
61957;BME280;47916;45.544;10.166;2022-07-23T01:01:46;100016.88;;;29.96;38.11
61957;BME280;47916;45.544;10.166;2022-07-23T01:01:58;100002.09;;;29.92;38.08
61957;BME280;47916;45.544;10.166;2022-07-23T01:02:11;100015.75;;;29.92;38.09
61957;BME280;47916;45.544;10.166;2022-07-23T01:02:22;100009.47;;;29.91;38.26
61957;BME280;47916;45.544;10.166;2022-07-23T01:02:34;100010.53;;;29.90;38.15
61957;BME280;47916;45.544;10.166;2022-07-23T01:02:45;100022.56;;;29.89;38.15
61957;BME280;47916;45.544;10.166;2022-07-23T01:02:58;100011.06;;;29.87;38.09
61957;BME280;47916;45.544;10.166;2022-07-23T01:03:10;100008.63;;;29.86;38.10
61957;BME280;47916;45.544;10.166;2022-07-23T01:03:21;100009.44;;;29.86;38.13
61957;BME280;47916;45.544;10.166;2022-07-23T01:03:36;100006.13;;;29.84;38.47
61957;BME280;47916;45.544;10.166;2022-07-23T01:03:47;100006.72;;;29.86;38.39
61957;BME280;47916;45.544;10.166;2022-07-23T01:03:59;100005.28;;;29.84;38.48
61957;BME280;47916;45.544;10.166;2022-07-23T01:04:10;100009.69;;;29.85;38.49
61957;BME280;47916;45.544;10.166;2022-07-23T01:04:22;99999.59;;;29.85;38.34